North Crossroads, Mississippi
Current Conditions -  °F | °C
As of 12:55 PM on Friday 21 Nov 2014 (Local Time) from KCRX Reporting Station
Overcast Overcast  
Wind Chill: 57°   Ceiling: 5500
Heat Index: 57°   Visibility: 10mi
Dew Point: 34°   Wind: 7mph
Humidity: 41%   Direction: 140°SE
Pressure: 30.32"   Gusts: NA
Location:  34.8106°N, 88.1999°W
Report Text: KCRX 211855Z AUTO 14006KT 10SM OVC055 14/01 A3032 RMK AO2
Loading
Personal Weather Stations






























Interactive Weather Map New forecast layout! Learn more

10-Day Weather Forecast

Advertisements
Track Severe Weather on mobile